sensor_id;sensor_type;location;lat;lon;timestamp;pressure;altitude;pressure_sealevel;temperature;humidity
35291;BME280;21411;50.024;19.220;2023-04-08T00:00:53;99067.53;;;2.84;100.00
35291;BME280;21411;50.024;19.220;2023-04-08T00:03:20;99070.06;;;2.82;100.00
35291;BME280;21411;50.024;19.220;2023-04-08T00:05:46;99068.17;;;2.80;100.00
35291;BME280;21411;50.024;19.220;2023-04-08T00:08:13;99067.48;;;2.81;100.00
35291;BME280;21411;50.024;19.220;2023-04-08T00:10:40;99068.04;;;2.80;100.00
35291;BME280;21411;50.024;19.220;2023-04-08T00:13:06;99070.01;;;2.78;100.00
35291;BME280;21411;50.024;19.220;2023-04-08T00:15:35;99070.73;;;2.78;100.00
35291;BME280;21411;50.024;19.220;2023-04-08T00:18:02;99069.85;;;2.78;100.00
35291;BME280;21411;50.024;19.220;2023-04-08T00:20:29;99067.95;;;2.78;100.00
35291;BME280;21411;50.024;19.220;2023-04-08T00:22:55;99070.56;;;2.78;100.00
35291;BME280;21411;50.024;19.220;2023-04-08T00:25:22;99070.38;;;2.78;100.00
35291;BME280;21411;50.024;19.220;2023-04-08T00:27:48;99071.98;;;2.77;100.00
35291;BME280;21411;50.024;19.220;2023-04-08T00:30:15;99073.55;;;2.78;100.00
35291;BME280;21411;50.024;19.220;2023-04-08T00:32:42;99075.83;;;2.78;100.00
35291;BME280;21411;50.024;19.220;2023-04-08T00:35:08;99080.03;;;2.78;100.00
35291;BME280;21411;50.024;19.220;2023-04-08T00:37:35;99082.13;;;2.78;100.00
35291;BME280;21411;50.024;19.220;2023-04-08T00:40:02;99081.08;;;2.78;100.00
35291;BME280;21411;50.024;19.220;2023-04-08T00:42:29;99080.00;;;2.78;100.00
35291;BME280;21411;50.024;19.220;2023-04-08T00:44:56;99080.75;;;2.77;100.00
35291;BME280;21411;50.024;19.220;2023-04-08T00:47:22;99085.31;;;2.77;100.00
35291;BME280;21411;50.024;19.220;2023-04-08T00:49:49;99089.70;;;2.77;100.00
35291;BME280;21411;50.024;19.220;2023-04-08T00:52:16;99085.17;;;2.76;100.00
35291;BME280;21411;50.024;19.220;2023-04-08T00:54:42;99087.31;;;2.75;100.00
35291;BME280;21411;50.024;19.220;2023-04-08T00:57:09;99092.24;;;2.75;100.00
35291;BME280;21411;50.024;19.220;2023-04-08T00:59:35;99088.02;;;2.75;100.00
35291;BME280;21411;50.024;19.220;2023-04-08T01:02:07;99089.10;;;2.74;100.00
35291;BME280;21411;50.024;19.220;2023-04-08T01:05:01;99090.50;;;2.74;100.00
35291;BME280;21411;50.024;19.220;2023-04-08T01:07:33;99090.29;;;2.75;100.00
35291;BME280;21411;50.024;19.220;2023-04-08T01:10:14;99092.91;;;2.75;100.00
35291;BME280;21411;50.024;19.220;2023-04-08T01:13:08;99094.32;;;2.75;100.00
35291;BME280;21411;50.024;19.220;2023-04-08T01:15:38;99096.57;;;2.76;100.00
35291;BME280;21411;50.024;19.220;2023-04-08T01:18:08;99100.24;;;2.77;100.00
35291;BME280;21411;50.024;19.220;2023-04-08T01:20:36;99102.77;;;2.74;100.00
35291;BME280;21411;50.024;19.220;2023-04-08T01:23:16;99104.47;;;2.71;100.00
35291;BME280;21411;50.024;19.220;2023-04-08T01:25:52;99105.88;;;2.66;100.00
35291;BME280;21411;50.024;19.220;2023-04-08T01:28:20;99104.02;;;2.63;100.00
35291;BME280;21411;50.024;19.220;2023-04-08T01:30:48;99105.27;;;2.62;100.00
35291;BME280;21411;50.024;19.220;2023-04-08T01:33:16;99105.14;;;2.62;100.00
35291;BME280;21411;50.024;19.220;2023-04-08T01:35:44;99102.00;;;2.61;100.00
35291;BME280;21411;50.024;19.220;2023-04-08T01:38:14;99105.16;;;2.60;100.00
35291;BME280;21411;50.024;19.220;2023-04-08T01:40:42;99106.10;;;2.59;100.00
35291;BME280;21411;50.024;19.220;2023-04-08T01:43:12;99109.45;;;2.57;100.00
35291;BME280;21411;50.024;19.220;2023-04-08T01:45:41;99111.59;;;2.57;100.00
35291;BME280;21411;50.024;19.220;2023-04-08T01:48:09;99113.39;;;2.55;100.00
35291;BME280;21411;50.024;19.220;2023-04-08T01:50:38;99115.70;;;2.54;100.00
35291;BME280;21411;50.024;19.220;2023-04-08T01:53:08;99115.72;;;2.54;100.00
35291;BME280;21411;50.024;19.220;2023-04-08T01:55:35;99121.02;;;2.53;100.00
35291;BME280;21411;50.024;19.220;2023-04-08T01:58:04;99121.27;;;2.51;100.00
35291;BME280;21411;50.024;19.220;2023-04-08T02:00:41;99121.70;;;2.48;100.00
35291;BME280;21411;50.024;19.220;2023-04-08T02:03:10;99124.91;;;2.47;100.00
35291;BME280;21411;50.024;19.220;2023-04-08T02:05:38;99123.91;;;2.46;100.00
35291;BME280;21411;50.024;19.220;2023-04-08T02:08:05;99123.90;;;2.46;100.00
35291;BME280;21411;50.024;19.220;2023-04-08T02:10:31;99127.77;;;2.45;100.00
35291;BME280;21411;50.024;19.220;2023-04-08T02:12:58;99128.56;;;2.42;100.00
35291;BME280;21411;50.024;19.220;2023-04-08T02:15:27;99130.00;;;2.41;100.00
35291;BME280;21411;50.024;19.220;2023-04-08T02:18:04;99133.52;;;2.40;100.00
35291;BME280;21411;50.024;19.220;2023-04-08T02:20:37;99137.32;;;2.36;100.00
35291;BME280;21411;50.024;19.220;2023-04-08T02:23:08;99136.18;;;2.34;100.00
35291;BME280;21411;50.024;19.220;2023-04-08T02:25:37;99138.88;;;2.32;100.00
35291;BME280;21411;50.024;19.220;2023-04-08T02:28:07;99141.52;;;2.31;100.00
35291;BME280;21411;50.024;19.220;2023-04-08T02:30:36;99145.45;;;2.29;100.00
35291;BME280;21411;50.024;19.220;2023-04-08T02:33:03;99145.37;;;2.26;100.00
35291;BME280;21411;50.024;19.220;2023-04-08T02:35:31;99144.90;;;2.24;100.00
35291;BME280;21411;50.024;19.220;2023-04-08T02:37:57;99144.97;;;2.22;100.00
35291;BME280;21411;50.024;19.220;2023-04-08T02:40:26;99147.80;;;2.21;100.00
35291;BME280;21411;50.024;19.220;2023-04-08T02:42:54;99146.80;;;2.19;100.00
35291;BME280;21411;50.024;19.220;2023-04-08T02:45:20;99146.30;;;2.18;100.00
35291;BME280;21411;50.024;19.220;2023-04-08T02:47:47;99147.33;;;2.19;100.00
35291;BME280;21411;50.024;19.220;2023-04-08T02:50:14;99145.96;;;2.18;100.00
35291;BME280;21411;50.024;19.220;2023-04-08T02:52:40;99152.13;;;2.16;100.00
35291;BME280;21411;50.024;19.220;2023-04-08T02:55:09;99155.48;;;2.16;100.00
35291;BME280;21411;50.024;19.220;2023-04-08T02:57:38;99159.54;;;2.16;100.00
35291;BME280;21411;50.024;19.220;2023-04-08T03:00:06;99158.70;;;2.14;100.00
35291;BME280;21411;50.024;19.220;2023-04-08T03:02:33;99164.71;;;2.12;100.00
35291;BME280;21411;50.024;19.220;2023-04-08T03:05:01;99165.70;;;2.08;100.00
35291;BME280;21411;50.024;19.220;2023-04-08T03:07:27;99164.77;;;2.04;100.00
35291;BME280;21411;50.024;19.220;2023-04-08T03:09:54;99165.92;;;2.01;100.00
35291;BME280;21411;50.024;19.220;2023-04-08T03:12:21;99168.12;;;1.97;100.00
35291;BME280;21411;50.024;19.220;2023-04-08T03:14:48;99171.71;;;1.95;100.00
35291;BME280;21411;50.024;19.220;2023-04-08T03:17:16;99174.02;;;1.94;100.00
35291;BME280;21411;50.024;19.220;2023-04-08T03:19:42;99174.98;;;1.91;100.00
35291;BME280;21411;50.024;19.220;2023-04-08T03:22:09;99175.27;;;1.86;100.00
35291;BME280;21411;50.024;19.220;2023-04-08T03:24:36;99177.17;;;1.81;100.00
35291;BME280;21411;50.024;19.220;2023-04-08T03:27:02;99179.54;;;1.79;100.00
35291;BME280;21411;50.024;19.220;2023-04-08T03:29:29;99176.84;;;1.74;100.00
35291;BME280;21411;50.024;19.220;2023-04-08T03:31:55;99182.16;;;1.72;100.00
35291;BME280;21411;50.024;19.220;2023-04-08T03:34:22;99183.83;;;1.69;100.00
35291;BME280;21411;50.024;19.220;2023-04-08T03:36:48;99184.45;;;1.65;100.00
35291;BME280;21411;50.024;19.220;2023-04-08T03:39:15;99185.20;;;1.64;100.00
35291;BME280;21411;50.024;19.220;2023-04-08T03:41:42;99189.05;;;1.64;100.00
35291;BME280;21411;50.024;19.220;2023-04-08T03:44:09;99190.11;;;1.64;100.00
35291;BME280;21411;50.024;19.220;2023-04-08T03:46:35;99193.27;;;1.63;100.00
35291;BME280;21411;50.024;19.220;2023-04-08T03:49:02;99194.88;;;1.62;100.00
35291;BME280;21411;50.024;19.220;2023-04-08T03:51:28;99198.60;;;1.60;100.00
35291;BME280;21411;50.024;19.220;2023-04-08T03:53:55;99200.70;;;1.60;100.00
35291;BME280;21411;50.024;19.220;2023-04-08T03:56:21;99197.73;;;1.60;100.00
35291;BME280;21411;50.024;19.220;2023-04-08T03:58:48;99199.13;;;1.60;100.00
35291;BME280;21411;50.024;19.220;2023-04-08T04:01:14;99200.16;;;1.61;100.00
35291;BME280;21411;50.024;19.220;2023-04-08T04:03:41;99200.70;;;1.60;100.00
35291;BME280;21411;50.024;19.220;2023-04-08T04:06:07;99203.02;;;1.59;100.00
35291;BME280;21411;50.024;19.220;2023-04-08T04:08:34;99207.23;;;1.59;100.00
35291;BME280;21411;50.024;19.220;2023-04-08T04:11:01;99210.55;;;1.59;100.00
35291;BME280;21411;50.024;19.220;2023-04-08T04:13:27;99212.73;;;1.56;100.00
35291;BME280;21411;50.024;19.220;2023-04-08T04:15:54;99215.13;;;1.51;100.00
35291;BME280;21411;50.024;19.220;2023-04-08T04:18:20;99216.48;;;1.46;100.00
35291;BME280;21411;50.024;19.220;2023-04-08T04:20:47;99221.46;;;1.44;100.00
35291;BME280;21411;50.024;19.220;2023-04-08T04:23:13;99223.27;;;1.41;100.00
35291;BME280;21411;50.024;19.220;2023-04-08T04:25:40;99228.40;;;1.40;100.00
35291;BME280;21411;50.024;19.220;2023-04-08T04:28:07;99228.26;;;1.38;100.00
35291;BME280;21411;50.024;19.220;2023-04-08T04:30:39;99227.09;;;1.36;100.00
35291;BME280;21411;50.024;19.220;2023-04-08T04:33:05;99225.72;;;1.35;100.00
35291;BME280;21411;50.024;19.220;2023-04-08T04:35:32;99228.17;;;1.34;100.00
35291;BME280;21411;50.024;19.220;2023-04-08T04:37:59;99232.56;;;1.34;100.00
35291;BME280;21411;50.024;19.220;2023-04-08T04:40:25;99233.45;;;1.34;100.00
35291;BME280;21411;50.024;19.220;2023-04-08T04:42:52;99236.06;;;1.34;100.00
35291;BME280;21411;50.024;19.220;2023-04-08T04:45:18;99236.33;;;1.37;100.00
35291;BME280;21411;50.024;19.220;2023-04-08T04:47:45;99240.46;;;1.40;100.00
35291;BME280;21411;50.024;19.220;2023-04-08T04:50:11;99241.30;;;1.41;100.00
35291;BME280;21411;50.024;19.220;2023-04-08T04:52:38;99243.20;;;1.42;100.00
35291;BME280;21411;50.024;19.220;2023-04-08T04:55:05;99245.13;;;1.43;100.00
35291;BME280;21411;50.024;19.220;2023-04-08T04:57:31;99248.44;;;1.43;100.00
35291;BME280;21411;50.024;19.220;2023-04-08T04:59:58;99252.35;;;1.47;100.00
35291;BME280;21411;50.024;19.220;2023-04-08T05:02:25;99251.20;;;1.58;100.00
35291;BME280;21411;50.024;19.220;2023-04-08T05:04:51;99252.63;;;1.63;100.00
35291;BME280;21411;50.024;19.220;2023-04-08T05:07:21;99256.67;;;1.69;100.00
35291;BME280;21411;50.024;19.220;2023-04-08T05:09:48;99261.73;;;1.77;100.00
35291;BME280;21411;50.024;19.220;2023-04-08T05:12:14;99261.55;;;1.83;100.00
35291;BME280;21411;50.024;19.220;2023-04-08T05:14:41;99262.58;;;1.91;100.00
35291;BME280;21411;50.024;19.220;2023-04-08T05:17:08;99268.80;;;1.94;100.00
35291;BME280;21411;50.024;19.220;2023-04-08T05:19:35;99272.20;;;1.97;100.00
35291;BME280;21411;50.024;19.220;2023-04-08T05:22:01;99273.88;;;2.01;100.00
35291;BME280;21411;50.024;19.220;2023-04-08T05:24:28;99279.98;;;2.08;100.00
35291;BME280;21411;50.024;19.220;2023-04-08T05:26:55;99278.24;;;2.14;100.00
35291;BME280;21411;50.024;19.220;2023-04-08T05:29:23;99282.02;;;2.29;100.00
35291;BME280;21411;50.024;19.220;2023-04-08T05:31:49;99286.15;;;2.37;100.00
35291;BME280;21411;50.024;19.220;2023-04-08T05:34:16;99287.18;;;2.38;100.00
35291;BME280;21411;50.024;19.220;2023-04-08T05:36:48;99284.70;;;2.39;100.00
35291;BME280;21411;50.024;19.220;2023-04-08T05:39:18;99288.58;;;2.45;100.00
35291;BME280;21411;50.024;19.220;2023-04-08T05:41:45;99287.58;;;2.49;100.00
35291;BME280;21411;50.024;19.220;2023-04-08T05:44:12;99288.69;;;2.53;100.00
35291;BME280;21411;50.024;19.220;2023-04-08T05:46:39;99295.45;;;2.55;100.00
35291;BME280;21411;50.024;19.220;2023-04-08T05:49:06;99300.87;;;2.56;100.00
35291;BME280;21411;50.024;19.220;2023-04-08T05:51:32;99302.46;;;2.55;100.00
35291;BME280;21411;50.024;19.220;2023-04-08T05:53:59;99306.17;;;2.61;100.00
35291;BME280;21411;50.024;19.220;2023-04-08T05:56:25;99306.40;;;2.70;100.00
35291;BME280;21411;50.024;19.220;2023-04-08T05:58:52;99308.05;;;2.80;100.00
35291;BME280;21411;50.024;19.220;2023-04-08T06:01:18;99315.73;;;2.81;100.00
35291;BME280;21411;50.024;19.220;2023-04-08T06:03:45;99314.95;;;2.84;100.00
35291;BME280;21411;50.024;19.220;2023-04-08T06:06:12;99315.77;;;2.86;100.00
35291;BME280;21411;50.024;19.220;2023-04-08T06:08:38;99320.91;;;2.84;100.00
35291;BME280;21411;50.024;19.220;2023-04-08T06:11:06;99323.88;;;2.90;100.00
35291;BME280;21411;50.024;19.220;2023-04-08T06:13:32;99319.05;;;3.10;100.00
35291;BME280;21411;50.024;19.220;2023-04-08T06:16:12;99318.30;;;3.39;100.00
35291;BME280;21411;50.024;19.220;2023-04-08T06:18:38;99318.92;;;3.57;100.00
35291;BME280;21411;50.024;19.220;2023-04-08T06:21:05;99316.09;;;3.79;100.00
35291;BME280;21411;50.024;19.220;2023-04-08T06:23:32;99313.66;;;3.99;100.00
35291;BME280;21411;50.024;19.220;2023-04-08T06:25:58;99313.50;;;4.18;100.00
35291;BME280;21411;50.024;19.220;2023-04-08T06:28:25;99317.48;;;4.39;100.00
35291;BME280;21411;50.024;19.220;2023-04-08T06:30:51;99316.95;;;4.54;100.00
35291;BME280;21411;50.024;19.220;2023-04-08T06:33:18;99326.53;;;4.56;100.00
35291;BME280;21411;50.024;19.220;2023-04-08T06:35:44;99325.66;;;4.75;100.00
35291;BME280;21411;50.024;19.220;2023-04-08T06:38:11;99330.27;;;4.83;100.00
35291;BME280;21411;50.024;19.220;2023-04-08T06:40:38;99334.16;;;4.78;100.00
35291;BME280;21411;50.024;19.220;2023-04-08T06:43:05;99343.95;;;4.66;100.00
35291;BME280;21411;50.024;19.220;2023-04-08T06:45:33;99349.02;;;4.57;100.00
35291;BME280;21411;50.024;19.220;2023-04-08T06:48:00;99351.09;;;4.58;100.00
35291;BME280;21411;50.024;19.220;2023-04-08T06:50:26;99352.72;;;4.67;100.00
35291;BME280;21411;50.024;19.220;2023-04-08T06:52:53;99350.77;;;4.68;100.00
35291;BME280;21411;50.024;19.220;2023-04-08T06:55:20;99356.02;;;4.59;100.00
35291;BME280;21411;50.024;19.220;2023-04-08T06:57:47;99364.35;;;4.42;100.00
35291;BME280;21411;50.024;19.220;2023-04-08T07:00:14;99366.27;;;4.33;100.00
35291;BME280;21411;50.024;19.220;2023-04-08T07:02:40;99364.20;;;4.32;100.00
35291;BME280;21411;50.024;19.220;2023-04-08T07:05:07;99365.31;;;4.30;100.00
35291;BME280;21411;50.024;19.220;2023-04-08T07:07:33;99371.66;;;4.30;100.00
35291;BME280;21411;50.024;19.220;2023-04-08T07:10:00;99372.63;;;4.32;100.00
35291;BME280;21411;50.024;19.220;2023-04-08T07:12:27;99372.77;;;4.33;100.00
35291;BME280;21411;50.024;19.220;2023-04-08T07:14:53;99371.09;;;4.41;100.00
35291;BME280;21411;50.024;19.220;2023-04-08T07:17:20;99375.52;;;4.45;100.00
35291;BME280;21411;50.024;19.220;2023-04-08T07:19:46;99382.14;;;4.52;100.00
35291;BME280;21411;50.024;19.220;2023-04-08T07:22:13;99384.04;;;4.62;100.00
35291;BME280;21411;50.024;19.220;2023-04-08T07:24:39;99384.82;;;4.84;100.00
35291;BME280;21411;50.024;19.220;2023-04-08T07:27:08;99386.11;;;5.01;100.00
35291;BME280;21411;50.024;19.220;2023-04-08T07:29:34;99388.58;;;5.20;100.00
35291;BME280;21411;50.024;19.220;2023-04-08T07:32:01;99390.42;;;5.49;100.00
35291;BME280;21411;50.024;19.220;2023-04-08T07:34:27;99389.33;;;5.85;100.00
35291;BME280;21411;50.024;19.220;2023-04-08T07:36:53;99385.57;;;6.16;100.00
35291;BME280;21411;50.024;19.220;2023-04-08T07:39:20;99384.52;;;6.45;100.00
35291;BME280;21411;50.024;19.220;2023-04-08T07:41:47;99383.14;;;6.76;100.00
35291;BME280;21411;50.024;19.220;2023-04-08T07:44:13;99383.27;;;6.85;100.00
35291;BME280;21411;50.024;19.220;2023-04-08T07:46:42;99386.63;;;6.77;100.00
35291;BME280;21411;50.024;19.220;2023-04-08T07:49:10;99389.53;;;6.67;100.00
35291;BME280;21411;50.024;19.220;2023-04-08T07:51:37;99387.60;;;6.67;100.00
35291;BME280;21411;50.024;19.220;2023-04-08T07:54:04;99388.39;;;6.69;100.00
35291;BME280;21411;50.024;19.220;2023-04-08T07:56:31;99390.41;;;6.75;100.00
35291;BME280;21411;50.024;19.220;2023-04-08T07:58:58;99391.46;;;6.75;100.00
35291;BME280;21411;50.024;19.220;2023-04-08T08:01:24;99392.27;;;6.85;100.00
35291;BME280;21411;50.024;19.220;2023-04-08T08:03:53;99390.92;;;6.91;100.00
35291;BME280;21411;50.024;19.220;2023-04-08T08:06:19;99393.35;;;6.73;100.00
35291;BME280;21411;50.024;19.220;2023-04-08T08:08:47;99393.62;;;6.54;100.00
35291;BME280;21411;50.024;19.220;2023-04-08T08:11:13;99398.23;;;6.46;100.00
35291;BME280;21411;50.024;19.220;2023-04-08T08:13:40;99401.38;;;6.38;100.00
35291;BME280;21411;50.024;19.220;2023-04-08T08:16:06;99397.86;;;6.30;100.00
35291;BME280;21411;50.024;19.220;2023-04-08T08:18:36;99397.13;;;6.35;100.00
35291;BME280;21411;50.024;19.220;2023-04-08T08:21:05;99396.16;;;6.41;100.00
35291;BME280;21411;50.024;19.220;2023-04-08T08:23:32;99395.29;;;6.45;100.00
35291;BME280;21411;50.024;19.220;2023-04-08T08:26:06;99396.55;;;6.61;100.00
35291;BME280;21411;50.024;19.220;2023-04-08T08:28:35;99396.66;;;6.73;100.00
35291;BME280;21411;50.024;19.220;2023-04-08T08:31:01;99395.29;;;6.81;100.00
35291;BME280;21411;50.024;19.220;2023-04-08T08:33:28;99399.23;;;6.84;100.00
35291;BME280;21411;50.024;19.220;2023-04-08T08:35:55;99401.10;;;6.85;100.00
35291;BME280;21411;50.024;19.220;2023-04-08T08:38:23;99405.20;;;6.88;100.00
35291;BME280;21411;50.024;19.220;2023-04-08T08:40:54;99403.16;;;7.02;100.00
35291;BME280;21411;50.024;19.220;2023-04-08T08:43:22;99407.70;;;7.22;100.00
35291;BME280;21411;50.024;19.220;2023-04-08T08:45:49;99412.52;;;7.36;100.00
35291;BME280;21411;50.024;19.220;2023-04-08T08:48:16;99414.42;;;7.59;100.00
35291;BME280;21411;50.024;19.220;2023-04-08T08:50:43;99416.73;;;7.81;100.00
35291;BME280;21411;50.024;19.220;2023-04-08T08:53:09;99412.84;;;7.96;100.00
35291;BME280;21411;50.024;19.220;2023-04-08T08:55:36;99412.60;;;8.01;100.00
35291;BME280;21411;50.024;19.220;2023-04-08T08:58:05;99413.35;;;8.00;100.00
35291;BME280;21411;50.024;19.220;2023-04-08T09:00:37;99409.23;;;8.01;100.00
35291;BME280;21411;50.024;19.220;2023-04-08T09:03:20;99408.06;;;8.10;100.00
35291;BME280;21411;50.024;19.220;2023-04-08T09:05:55;99416.17;;;8.21;100.00
35291;BME280;21411;50.024;19.220;2023-04-08T09:10:49;99421.27;;;7.96;100.00
35291;BME280;21411;50.024;19.220;2023-04-08T09:13:16;99420.83;;;7.88;100.00
35291;BME280;21411;50.024;19.220;2023-04-08T09:18:29;99423.68;;;7.95;100.00
35291;BME280;21411;50.024;19.220;2023-04-08T09:20:58;99422.23;;;8.02;100.00
35291;BME280;21411;50.024;19.220;2023-04-08T09:26:13;99422.99;;;8.37;100.00
35291;BME280;21411;50.024;19.220;2023-04-08T09:28:43;99421.36;;;8.38;100.00
35291;BME280;21411;50.024;19.220;2023-04-08T09:31:23;99420.19;;;8.57;100.00
35291;BME280;21411;50.024;19.220;2023-04-08T09:33:50;99422.36;;;8.83;100.00
35291;BME280;21411;50.024;19.220;2023-04-08T09:36:18;99431.05;;;9.07;100.00
35291;BME280;21411;50.024;19.220;2023-04-08T09:38:45;99432.38;;;9.15;100.00
35291;BME280;21411;50.024;19.220;2023-04-08T09:41:13;99434.27;;;9.22;100.00
35291;BME280;21411;50.024;19.220;2023-04-08T09:43:53;99437.26;;;9.42;100.00
35291;BME280;21411;50.024;19.220;2023-04-08T09:52:07;99424.34;;;10.29;100.00
35291;BME280;21411;50.024;19.220;2023-04-08T09:54:53;99422.70;;;10.51;100.00
35291;BME280;21411;50.024;19.220;2023-04-08T09:57:36;99422.30;;;10.76;100.00
35291;BME280;21411;50.024;19.220;2023-04-08T10:05:13;99422.96;;;11.08;100.00
35291;BME280;21411;50.024;19.220;2023-04-08T10:07:41;99420.98;;;11.06;100.00
35291;BME280;21411;50.024;19.220;2023-04-08T10:10:08;99421.36;;;11.08;100.00
35291;BME280;21411;50.024;19.220;2023-04-08T10:12:37;99421.70;;;11.06;100.00
35291;BME280;21411;50.024;19.220;2023-04-08T10:17:53;99412.88;;;11.02;100.00
35291;BME280;21411;50.024;19.220;2023-04-08T10:23:08;99418.88;;;10.73;100.00
35291;BME280;21411;50.024;19.220;2023-04-08T10:25:37;99425.76;;;10.71;100.00
35291;BME280;21411;50.024;19.220;2023-04-08T10:38:25;99432.60;;;10.03;100.00
35291;BME280;21411;50.024;19.220;2023-04-08T10:40:53;99430.73;;;10.17;100.00
35291;BME280;21411;50.024;19.220;2023-04-08T10:43:20;99434.48;;;10.26;100.00
35291;BME280;21411;50.024;19.220;2023-04-08T10:45:46;99430.67;;;10.33;100.00
35291;BME280;21411;50.024;19.220;2023-04-08T10:48:23;99424.34;;;10.45;100.00
35291;BME280;21411;50.024;19.220;2023-04-08T10:53:29;99423.70;;;10.82;100.00
35291;BME280;21411;50.024;19.220;2023-04-08T10:56:10;99416.32;;;11.09;100.00
35291;BME280;21411;50.024;19.220;2023-04-08T10:58:48;99415.64;;;11.45;100.00
35291;BME280;21411;50.024;19.220;2023-04-08T11:01:15;99414.40;;;11.70;100.00
35291;BME280;21411;50.024;19.220;2023-04-08T11:03:43;99413.70;;;11.87;100.00
35291;BME280;21411;50.024;19.220;2023-04-08T11:06:09;99421.48;;;11.99;100.00
35291;BME280;21411;50.024;19.220;2023-04-08T11:08:37;99419.27;;;12.05;100.00
35291;BME280;21411;50.024;19.220;2023-04-08T11:11:05;99417.48;;;11.97;100.00
35291;BME280;21411;50.024;19.220;2023-04-08T11:13:39;99418.41;;;11.94;100.00
35291;BME280;21411;50.024;19.220;2023-04-08T11:16:06;99422.05;;;11.98;100.00
35291;BME280;21411;50.024;19.220;2023-04-08T11:18:37;99422.00;;;11.96;100.00
35291;BME280;21411;50.024;19.220;2023-04-08T11:21:08;99420.66;;;11.95;100.00
35291;BME280;21411;50.024;19.220;2023-04-08T11:23:35;99418.21;;;11.94;100.00
35291;BME280;21411;50.024;19.220;2023-04-08T11:26:02;99421.84;;;11.93;100.00
35291;BME280;21411;50.024;19.220;2023-04-08T11:28:30;99416.55;;;11.87;100.00
35291;BME280;21411;50.024;19.220;2023-04-08T11:30:58;99420.55;;;11.88;100.00
35291;BME280;21411;50.024;19.220;2023-04-08T11:33:24;99420.73;;;11.77;100.00
35291;BME280;21411;50.024;19.220;2023-04-08T11:35:52;99416.88;;;11.76;100.00
35291;BME280;21411;50.024;19.220;2023-04-08T11:38:23;99416.72;;;11.87;100.00
35291;BME280;21411;50.024;19.220;2023-04-08T11:40:54;99417.53;;;11.85;100.00
35291;BME280;21411;50.024;19.220;2023-04-08T11:43:21;99419.45;;;11.80;100.00
35291;BME280;21411;50.024;19.220;2023-04-08T11:45:48;99421.98;;;11.66;100.00
35291;BME280;21411;50.024;19.220;2023-04-08T11:48:15;99421.34;;;11.62;100.00
35291;BME280;21411;50.024;19.220;2023-04-08T11:50:43;99421.74;;;11.72;100.00
35291;BME280;21411;50.024;19.220;2023-04-08T11:53:20;99423.70;;;11.64;100.00
35291;BME280;21411;50.024;19.220;2023-04-08T11:55:47;99427.34;;;11.43;100.00
35291;BME280;21411;50.024;19.220;2023-04-08T11:58:14;99425.21;;;11.29;100.00
35291;BME280;21411;50.024;19.220;2023-04-08T12:00:41;99423.54;;;11.08;100.00
35291;BME280;21411;50.024;19.220;2023-04-08T12:03:09;99420.96;;;10.86;100.00
35291;BME280;21411;50.024;19.220;2023-04-08T12:05:36;99429.39;;;10.64;100.00
35291;BME280;21411;50.024;19.220;2023-04-08T12:08:03;99428.44;;;10.41;100.00
35291;BME280;21411;50.024;19.220;2023-04-08T12:10:29;99427.68;;;10.24;100.00
35291;BME280;21411;50.024;19.220;2023-04-08T12:12:56;99429.61;;;10.08;100.00
35291;BME280;21411;50.024;19.220;2023-04-08T12:15:23;99431.48;;;9.89;100.00
35291;BME280;21411;50.024;19.220;2023-04-08T12:17:49;99427.86;;;9.68;100.00
35291;BME280;21411;50.024;19.220;2023-04-08T12:20:16;99429.52;;;9.57;100.00
35291;BME280;21411;50.024;19.220;2023-04-08T12:22:42;99424.84;;;9.55;100.00
35291;BME280;21411;50.024;19.220;2023-04-08T12:25:09;99430.92;;;9.51;100.00
35291;BME280;21411;50.024;19.220;2023-04-08T12:27:35;99432.86;;;9.45;100.00
35291;BME280;21411;50.024;19.220;2023-04-08T12:30:02;99437.23;;;9.30;100.00
35291;BME280;21411;50.024;19.220;2023-04-08T12:32:29;99436.52;;;9.14;100.00
35291;BME280;21411;50.024;19.220;2023-04-08T12:34:56;99437.48;;;9.02;100.00
35291;BME280;21411;50.024;19.220;2023-04-08T12:37:22;99434.05;;;9.00;100.00
35291;BME280;21411;50.024;19.220;2023-04-08T12:39:49;99437.67;;;8.98;100.00
35291;BME280;21411;50.024;19.220;2023-04-08T12:42:16;99437.08;;;8.93;100.00
35291;BME280;21411;50.024;19.220;2023-04-08T12:44:42;99438.81;;;8.91;100.00
35291;BME280;21411;50.024;19.220;2023-04-08T12:47:08;99438.59;;;8.88;100.00
35291;BME280;21411;50.024;19.220;2023-04-08T12:49:35;99437.86;;;8.86;99.98
35291;BME280;21411;50.024;19.220;2023-04-08T12:52:02;99442.88;;;8.77;99.32
35291;BME280;21411;50.024;19.220;2023-04-08T12:54:28;99445.47;;;8.72;98.01
35291;BME280;21411;50.024;19.220;2023-04-08T12:56:56;99440.54;;;8.68;94.16
35291;BME280;21411;50.024;19.220;2023-04-08T12:59:23;99447.53;;;8.66;89.90
35291;BME280;21411;50.024;19.220;2023-04-08T13:01:50;99446.80;;;8.67;89.23
35291;BME280;21411;50.024;19.220;2023-04-08T13:04:16;99448.29;;;8.59;89.34
35291;BME280;21411;50.024;19.220;2023-04-08T13:06:43;99453.23;;;8.52;90.06
35291;BME280;21411;50.024;19.220;2023-04-08T13:09:09;99455.27;;;8.46;90.23
35291;BME280;21411;50.024;19.220;2023-04-08T13:11:36;99454.13;;;8.37;90.92
35291;BME280;21411;50.024;19.220;2023-04-08T13:14:02;99459.20;;;8.28;91.34
35291;BME280;21411;50.024;19.220;2023-04-08T13:16:29;99459.36;;;8.14;91.76
35291;BME280;21411;50.024;19.220;2023-04-08T13:18:55;99460.51;;;8.05;92.74
35291;BME280;21411;50.024;19.220;2023-04-08T13:21:22;99462.81;;;7.94;93.39
35291;BME280;21411;50.024;19.220;2023-04-08T13:23:48;99464.20;;;7.83;94.02
35291;BME280;21411;50.024;19.220;2023-04-08T13:26:15;99462.67;;;7.78;94.73
35291;BME280;21411;50.024;19.220;2023-04-08T13:28:41;99463.09;;;7.73;95.29
35291;BME280;21411;50.024;19.220;2023-04-08T13:31:08;99467.50;;;7.70;95.76